EKBI/BLL METAR and TAF weather

Enter ICAO airport designator
Station Type Date Time Source
EKBI METAR 2018/12/10 17:20 UTC NOAA

EKBI 101720Z AUTO 30010KT 9999 NCD 04/01 Q1009


Station Type Date Time Source
EKBI Decoded METAR 2018/12/10 17:20 UTC NOAA

Billund Lufthavn, Denmark (EKBI) 55-44N 009-10E 79M
Dec 10, 2018 - 12:20 PM EST / 2018.12.10 1720 UTC
Wind: from the WNW (300 degrees) at 12 MPH (10 KT):0
Visibility: greater than 7 mile(s):0
Temperature: 39 F (4 C)
Dew Point: 33 F (1 C)
Relative Humidity: 80%
Pressure (altimeter): 29.80 in. Hg (1009 hPa)
ob: EKBI 101720Z AUTO 30010KT 9999 NCD 04/01 Q1009
cycle: 17

Station Type Date Time Source
EKBI TAF 2018/12/10 18:18 UTC NOAA

TAF EKBI 101713Z 1018/1118 30012KT 9999 SCT020
BECMG 1110/1112 36008KT


Example: see airport list